createdAt,value
2022-10-04T00:00:46.656Z,2.97
2022-10-04T00:02:00.008Z,4.72
2022-10-04T00:03:25.191Z,4.30
2022-10-04T00:04:43.531Z,3.03
2022-10-04T00:05:53.155Z,4.53
2022-10-04T00:07:08.322Z,5.28
2022-10-04T00:08:42.580Z,4.72
2022-10-04T00:10:00.120Z,5.45
2022-10-04T00:11:06.217Z,3.50
2022-10-04T00:12:22.413Z,5.72
2022-10-04T00:13:26.711Z,4.13
2022-10-04T00:14:32.526Z,3.75
2022-10-04T00:15:39.237Z,5.45
2022-10-04T00:16:44.050Z,6.88
2022-10-04T00:18:01.089Z,2.70
2022-10-04T00:19:15.500Z,5.00
2022-10-04T00:20:50.621Z,2.60
2022-10-04T00:21:53.523Z,5.17
2022-10-04T00:23:41.702Z,2.73
2022-10-04T00:25:08.084Z,2.75
2022-10-04T00:26:38.856Z,3.95
2022-10-04T00:28:19.608Z,3.57
2022-10-04T00:29:37.100Z,2.97
2022-10-04T00:30:39.332Z,3.30
2022-10-04T00:32:12.971Z,5.10
2022-10-04T00:33:36.000Z,4.57
2022-10-04T00:34:48.779Z,4.77
2022-10-04T00:35:51.125Z,3.07
2022-10-04T00:36:57.299Z,3.40
2022-10-04T00:38:13.537Z,4.55
2022-10-04T00:39:18.399Z,5.78
2022-10-04T00:40:22.284Z,3.30
2022-10-04T00:41:25.345Z,4.47
2022-10-04T00:43:24.011Z,4.63
2022-10-04T00:44:38.473Z,3.90
2022-10-04T00:45:48.923Z,4.68
2022-10-04T00:46:52.947Z,4.90
2022-10-04T00:48:16.203Z,4.55
2022-10-04T00:49:23.815Z,3.63
2022-10-04T00:50:41.758Z,4.50
2022-10-04T00:51:54.285Z,3.58
2022-10-04T00:53:02.640Z,3.63
2022-10-04T00:54:07.857Z,4.18
2022-10-04T00:55:19.092Z,3.67
2022-10-04T00:56:30.936Z,3.10
2022-10-04T00:57:44.990Z,3.28
2022-10-04T00:59:09.928Z,3.35
2022-10-04T01:00:19.467Z,4.63
2022-10-04T01:01:26.262Z,2.67
2022-10-04T01:02:44.872Z,4.82
2022-10-04T01:03:47.937Z,3.22
2022-10-04T01:05:09.398Z,3.53
2022-10-04T01:06:13.617Z,4.38
2022-10-04T01:07:22.310Z,5.15
2022-10-04T01:08:40.785Z,6.15
2022-10-04T01:09:55.433Z,3.85
2022-10-04T01:10:57.574Z,5.07
2022-10-04T01:12:06.171Z,4.65
2022-10-04T01:13:17.697Z,6.63
2022-10-04T01:14:28.364Z,5.45
2022-10-04T01:15:53.653Z,4.28
2022-10-04T01:16:56.513Z,3.97
2022-10-04T01:18:27.593Z,5.45
2022-10-04T01:19:31.934Z,3.90
2022-10-04T01:20:54.731Z,3.92
2022-10-04T01:22:00.070Z,4.65
2022-10-04T01:23:03.920Z,4.93
2022-10-04T01:24:08.954Z,4.38
2022-10-04T01:25:31.156Z,3.78
2022-10-04T01:26:40.425Z,4.88
2022-10-04T01:27:45.745Z,3.10
2022-10-04T01:28:48.046Z,2.85
2022-10-04T01:29:53.413Z,3.63
2022-10-04T01:30:55.819Z,4.77
2022-10-04T01:32:00.727Z,4.80
2022-10-04T01:33:03.591Z,4.75
2022-10-04T01:34:07.078Z,3.13
2022-10-04T01:35:12.105Z,3.92
2022-10-04T01:36:14.403Z,6.80
2022-10-04T01:37:16.803Z,3.83
2022-10-04T01:38:19.162Z,4.88
2022-10-04T01:39:23.422Z,3.67
2022-10-04T01:40:33.277Z,4.00
2022-10-04T01:41:54.515Z,3.35
2022-10-04T01:43:06.486Z,3.30
2022-10-04T01:44:22.585Z,5.50
2022-10-04T01:45:35.152Z,3.45
2022-10-04T01:46:40.135Z,2.60
2022-10-04T01:47:52.915Z,5.07
2022-10-04T01:48:58.399Z,4.17
2022-10-04T01:50:14.962Z,5.15
2022-10-04T01:51:30.534Z,5.40
2022-10-04T01:52:38.052Z,4.10
2022-10-04T01:53:49.982Z,3.53
2022-10-04T01:55:02.779Z,2.90
2022-10-04T01:56:10.941Z,5.68
2022-10-04T01:57:23.950Z,4.40
2022-10-04T01:58:32.292Z,5.53
2022-10-04T01:59:54.255Z,5.93
2022-10-04T02:01:34.843Z,4.97
2022-10-04T02:02:46.142Z,4.20
2022-10-04T02:03:54.482Z,3.67
2022-10-04T02:04:59.606Z,6.20
2022-10-04T02:06:07.511Z,5.97
2022-10-04T02:07:15.457Z,3.47
2022-10-04T02:08:23.903Z,4.80
2022-10-04T02:09:34.804Z,4.55
2022-10-04T02:10:43.235Z,4.97
2022-10-04T02:11:52.737Z,6.00
2022-10-04T02:12:57.277Z,4.57
2022-10-04T02:14:03.176Z,3.77
2022-10-04T02:15:08.519Z,7.13
2022-10-04T02:16:12.322Z,4.50
2022-10-04T02:17:18.323Z,2.97
2022-10-04T02:18:22.917Z,6.23
2022-10-04T02:19:33.776Z,3.47
2022-10-04T02:20:40.175Z,4.10
2022-10-04T02:21:43.829Z,3.53
2022-10-04T02:22:51.505Z,4.23
2022-10-04T02:23:57.401Z,5.27
2022-10-04T02:25:00.235Z,5.33
2022-10-04T02:26:07.369Z,5.28
2022-10-04T02:27:09.780Z,4.00
2022-10-04T02:28:16.358Z,5.30
2022-10-04T02:29:20.591Z,4.77
2022-10-04T02:30:23.612Z,3.90
2022-10-04T02:31:46.684Z,4.70
2022-10-04T02:32:58.438Z,4.63
2022-10-04T02:34:00.786Z,3.97
2022-10-04T02:35:06.499Z,3.33
2022-10-04T02:36:10.637Z,4.80
2022-10-04T02:37:14.816Z,3.83
2022-10-04T02:38:24.644Z,4.13
2022-10-04T02:39:32.288Z,4.57
2022-10-04T02:40:46.829Z,5.40
2022-10-04T02:42:08.996Z,5.20
2022-10-04T02:43:19.452Z,4.43
2022-10-04T02:44:42.589Z,3.60
2022-10-04T02:46:04.508Z,5.17
2022-10-04T02:47:20.898Z,4.60
2022-10-04T02:48:31.917Z,4.83
2022-10-04T02:49:47.155Z,4.07
2022-10-04T02:50:53.551Z,4.70
2022-10-04T02:52:07.476Z,5.97
2022-10-04T02:53:22.492Z,4.83
2022-10-04T02:54:38.870Z,3.27
2022-10-04T02:55:41.843Z,4.20
2022-10-04T02:56:44.809Z,6.70
2022-10-04T02:57:47.660Z,4.93
2022-10-04T02:58:50.180Z,5.97
2022-10-04T03:00:10.109Z,4.50
2022-10-04T03:01:50.945Z,4.37
2022-10-04T03:03:20.342Z,6.23
2022-10-04T03:04:27.174Z,4.10
2022-10-04T03:05:29.493Z,3.37
2022-10-04T03:06:33.393Z,3.93
2022-10-04T03:07:37.248Z,5.33
2022-10-04T03:08:53.102Z,4.73
2022-10-04T03:09:55.373Z,4.93
2022-10-04T03:11:02.549Z,5.55
2022-10-04T03:12:05.845Z,4.72
2022-10-04T03:13:08.639Z,4.45
2022-10-04T03:14:20.447Z,3.28
2022-10-04T03:15:22.857Z,5.17
2022-10-04T03:16:26.323Z,4.23
2022-10-04T03:17:32.053Z,3.87
2022-10-04T03:18:36.290Z,3.90
2022-10-04T03:19:38.810Z,4.03
2022-10-04T03:20:41.532Z,5.87
2022-10-04T03:21:49.659Z,3.80
2022-10-04T03:22:55.739Z,4.17
2022-10-04T03:24:01.106Z,4.80
2022-10-04T03:25:03.593Z,3.93
2022-10-04T03:26:37.117Z,4.38
2022-10-04T03:27:39.818Z,4.50
2022-10-04T03:28:44.379Z,8.20
2022-10-04T03:29:47.328Z,5.10
2022-10-04T03:30:50.249Z,6.33
2022-10-04T03:31:58.400Z,3.47
2022-10-04T03:33:00.781Z,5.40
2022-10-04T03:34:03.205Z,3.13
2022-10-04T03:35:15.621Z,3.67
2022-10-04T03:36:19.213Z,5.17
2022-10-04T03:37:22.150Z,4.77
2022-10-04T03:38:26.534Z,3.13
2022-10-04T03:39:40.666Z,5.20
2022-10-04T03:40:51.697Z,5.20
2022-10-04T03:41:57.990Z,5.27
2022-10-04T03:43:04.390Z,4.73
2022-10-04T03:44:23.163Z,3.10
2022-10-04T03:45:28.539Z,5.83
2022-10-04T03:46:30.938Z,6.30
2022-10-04T03:47:37.200Z,5.57
2022-10-04T03:48:46.720Z,5.53
2022-10-04T03:49:50.955Z,4.93
2022-10-04T03:50:54.320Z,4.83
2022-10-04T03:51:59.037Z,3.63
2022-10-04T03:53:09.916Z,5.17
2022-10-04T03:54:18.576Z,6.10
2022-10-04T03:55:24.508Z,5.77
2022-10-04T03:56:29.963Z,3.03
2022-10-04T03:57:34.228Z,2.87
2022-10-04T03:58:39.968Z,5.27
2022-10-04T03:59:43.348Z,4.10
2022-10-04T04:00:54.107Z,3.88
2022-10-04T04:02:06.828Z,7.17
2022-10-04T04:03:17.554Z,3.40
2022-10-04T04:04:43.101Z,4.73
2022-10-04T04:05:51.178Z,5.53
2022-10-04T04:07:03.126Z,5.07
2022-10-04T04:08:15.609Z,6.13
2022-10-04T04:09:38.193Z,6.33
2022-10-04T04:10:46.500Z,3.73
2022-10-04T04:11:50.801Z,6.33
2022-10-04T04:12:55.316Z,5.73
2022-10-04T04:14:10.203Z,4.30
2022-10-04T04:15:13.983Z,6.23
2022-10-04T04:16:16.491Z,5.73
2022-10-04T04:17:30.206Z,4.63
2022-10-04T04:18:35.156Z,3.13
2022-10-04T04:19:37.343Z,3.93
2022-10-04T04:20:42.488Z,5.47
2022-10-04T04:21:45.904Z,7.73
2022-10-04T04:23:11.988Z,4.40
2022-10-04T04:24:32.290Z,5.30
2022-10-04T04:25:38.553Z,5.33
2022-10-04T04:26:48.356Z,4.23
2022-10-04T04:29:30.311Z,4.13
2022-10-04T04:30:37.104Z,7.00
2022-10-04T04:31:51.952Z,5.50
2022-10-04T04:32:57.838Z,4.07
2022-10-04T04:34:15.218Z,4.87
2022-10-04T04:35:36.350Z,5.17
2022-10-04T04:36:42.109Z,3.93
2022-10-04T04:37:44.343Z,4.83
2022-10-04T04:39:05.518Z,4.20
2022-10-04T04:40:26.004Z,6.73
2022-10-04T04:41:32.446Z,4.93
2022-10-04T04:42:35.119Z,2.93
2022-10-04T04:43:42.969Z,5.13
2022-10-04T04:44:52.061Z,4.77
2022-10-04T04:46:14.958Z,4.57
2022-10-04T04:47:30.085Z,5.73
2022-10-04T04:48:32.881Z,4.50
2022-10-04T04:49:39.902Z,5.03
2022-10-04T04:50:48.266Z,6.57
2022-10-04T04:51:53.602Z,5.73
2022-10-04T04:52:58.658Z,5.07
2022-10-04T04:54:03.901Z,5.37
2022-10-04T04:55:15.254Z,4.50
2022-10-04T04:56:27.272Z,7.83
2022-10-04T04:57:29.665Z,6.40
2022-10-04T04:58:46.751Z,5.60
2022-10-04T04:59:54.205Z,7.87
2022-10-04T05:01:01.661Z,4.13
2022-10-04T05:02:03.989Z,4.53
2022-10-04T05:03:17.573Z,5.33
2022-10-04T05:04:22.915Z,4.50
2022-10-04T05:05:27.256Z,6.43
2022-10-04T05:06:30.992Z,4.73
2022-10-04T05:07:33.188Z,3.57
2022-10-04T05:08:40.421Z,6.53
2022-10-04T05:09:44.161Z,6.73
2022-10-04T05:11:16.145Z,7.17
2022-10-04T05:12:23.775Z,4.73
2022-10-04T05:13:49.222Z,3.37
2022-10-04T05:14:54.490Z,6.03
2022-10-04T05:15:59.420Z,6.77
2022-10-04T05:17:01.792Z,4.67
2022-10-04T05:18:20.857Z,4.63
2022-10-04T05:19:37.020Z,5.10
2022-10-04T05:20:39.255Z,5.00
2022-10-04T05:21:46.722Z,5.23
2022-10-04T05:22:51.381Z,4.00
2022-10-04T05:23:56.199Z,3.97
2022-10-04T05:25:05.218Z,3.87
2022-10-04T05:26:12.877Z,5.27
2022-10-04T05:27:23.343Z,7.50
2022-10-04T05:28:26.208Z,5.77
2022-10-04T05:29:34.280Z,5.70
2022-10-04T05:30:50.116Z,5.57
2022-10-04T05:31:58.749Z,4.57
2022-10-04T05:33:20.272Z,7.73
2022-10-04T05:34:32.049Z,6.57
2022-10-04T05:35:59.499Z,9.60
2022-10-04T05:37:30.154Z,5.77
2022-10-04T05:39:00.090Z,10.03
2022-10-04T05:40:40.003Z,6.20
2022-10-04T05:42:12.999Z,8.70
2022-10-04T05:43:30.460Z,6.40
2022-10-04T05:44:37.639Z,5.90
2022-10-04T05:45:42.155Z,5.00
2022-10-04T05:46:44.622Z,5.07
2022-10-04T05:47:51.100Z,4.13
2022-10-04T05:48:56.189Z,5.10
2022-10-04T05:50:01.158Z,6.43
2022-10-04T05:51:15.049Z,7.43
2022-10-04T05:52:28.642Z,5.20
2022-10-04T05:53:33.596Z,5.77
2022-10-04T05:54:36.141Z,5.17
2022-10-04T05:55:55.350Z,5.63
2022-10-04T05:57:09.792Z,7.20
2022-10-04T05:58:48.239Z,6.10
2022-10-04T06:00:04.131Z,5.13
2022-10-04T06:01:51.635Z,4.50
2022-10-04T06:03:14.736Z,5.10
2022-10-04T06:04:44.375Z,6.17
2022-10-04T06:05:51.955Z,5.60
2022-10-04T06:07:00.251Z,6.87
2022-10-04T06:08:17.124Z,10.77
2022-10-04T06:09:37.815Z,7.23
2022-10-04T06:11:03.627Z,6.33
2022-10-04T06:12:26.941Z,3.90
2022-10-04T06:13:52.668Z,5.77
2022-10-04T06:15:08.450Z,5.53
2022-10-04T06:16:32.456Z,7.40
2022-10-04T06:17:34.647Z,6.10
2022-10-04T06:18:54.893Z,6.67
2022-10-04T06:20:09.273Z,6.60
2022-10-04T06:21:37.672Z,9.33
2022-10-04T06:22:44.944Z,10.77
2022-10-04T06:24:01.086Z,7.93
2022-10-04T06:25:06.593Z,9.33
2022-10-04T06:26:18.638Z,8.93
2022-10-04T06:27:23.689Z,11.07
2022-10-04T06:28:29.141Z,8.90
2022-10-04T06:29:38.668Z,7.13
2022-10-04T06:31:08.059Z,6.43
2022-10-04T06:32:19.836Z,5.67
2022-10-04T06:33:34.305Z,9.03
2022-10-04T06:34:59.198Z,7.73
2022-10-04T06:36:14.641Z,8.47
2022-10-04T06:37:32.577Z,5.60
2022-10-04T06:39:00.904Z,6.63
2022-10-04T06:40:43.703Z,6.80
2022-10-04T06:42:08.897Z,6.00
2022-10-04T06:43:29.300Z,5.93
2022-10-04T06:44:44.297Z,6.07
2022-10-04T06:46:07.489Z,4.47
2022-10-04T06:47:27.868Z,6.10
2022-10-04T06:48:51.822Z,6.90
2022-10-04T06:50:06.920Z,5.00
2022-10-04T06:51:35.637Z,4.87
2022-10-04T06:52:54.879Z,6.23
2022-10-04T06:54:34.593Z,4.37
2022-10-04T06:56:03.205Z,4.70
2022-10-04T06:57:26.665Z,3.83
2022-10-04T06:58:50.766Z,4.67
2022-10-04T07:00:02.169Z,4.93
2022-10-04T07:01:13.203Z,4.63
2022-10-04T07:02:22.752Z,6.07
2022-10-04T07:03:39.796Z,5.27
2022-10-04T07:05:14.520Z,5.60
2022-10-04T07:06:24.816Z,3.67
2022-10-04T07:07:36.351Z,3.70
2022-10-04T07:08:50.540Z,4.00
2022-10-04T07:10:04.152Z,8.20
2022-10-04T07:11:19.405Z,5.38
2022-10-04T07:12:21.784Z,5.25
2022-10-04T07:13:33.875Z,4.28
2022-10-04T07:14:51.213Z,5.57
2022-10-04T07:16:10.567Z,5.85
2022-10-04T07:17:20.077Z,4.20
2022-10-04T07:18:52.147Z,4.40
2022-10-04T07:19:55.921Z,4.32
2022-10-04T07:21:04.816Z,5.43
2022-10-04T07:22:06.954Z,4.95
2022-10-04T07:23:13.344Z,4.63
2022-10-04T07:24:25.177Z,5.47
2022-10-04T07:25:32.011Z,4.72
2022-10-04T07:26:48.952Z,4.00
2022-10-04T07:28:16.623Z,6.97
2022-10-04T07:29:36.706Z,3.78
2022-10-04T07:30:59.649Z,4.40
2022-10-04T07:32:05.968Z,4.65
2022-10-04T07:33:14.646Z,6.38
2022-10-04T07:34:30.708Z,7.28
2022-10-04T07:35:44.972Z,3.58
2022-10-04T07:36:59.969Z,6.65
2022-10-04T07:38:21.425Z,4.13
2022-10-04T07:39:43.847Z,4.00
2022-10-04T07:41:05.136Z,5.10
2022-10-04T07:42:44.302Z,5.70
2022-10-04T07:44:00.754Z,4.60
2022-10-04T07:45:32.818Z,6.57
2022-10-04T07:47:03.961Z,4.07
2022-10-04T07:48:23.289Z,5.47
2022-10-04T07:49:27.115Z,5.03
2022-10-04T07:50:35.270Z,5.40
2022-10-04T07:52:04.385Z,5.38
2022-10-04T07:53:18.405Z,5.78
2022-10-04T07:54:26.679Z,6.10
2022-10-04T07:55:32.322Z,5.28
2022-10-04T07:56:42.956Z,5.53
2022-10-04T07:58:26.023Z,4.45
2022-10-04T07:59:46.614Z,6.03
2022-10-04T08:01:01.268Z,5.80
2022-10-04T08:02:38.699Z,8.95
2022-10-04T08:03:50.107Z,4.55
2022-10-04T08:05:10.685Z,3.80
2022-10-04T08:06:16.679Z,5.72
2022-10-04T08:07:26.410Z,7.60
2022-10-04T08:08:58.281Z,5.07
2022-10-04T08:10:14.875Z,4.60
2022-10-04T08:11:46.823Z,5.38
2022-10-04T08:12:59.983Z,5.22
2022-10-04T08:14:38.394Z,4.25
2022-10-04T08:15:44.032Z,4.43
2022-10-04T08:16:54.620Z,7.68
2022-10-04T08:18:26.312Z,4.72
2022-10-04T08:19:49.794Z,5.80
2022-10-04T08:21:08.025Z,10.45
2022-10-04T08:22:22.609Z,5.18
2022-10-04T08:23:44.956Z,5.85
2022-10-04T08:25:23.020Z,8.05
2022-10-04T08:27:08.461Z,5.72
2022-10-04T08:28:48.855Z,6.43
2022-10-04T08:30:12.168Z,6.65
2022-10-04T08:31:27.983Z,7.25
2022-10-04T08:33:01.805Z,7.63
2022-10-04T08:34:25.857Z,5.75
2022-10-04T08:35:37.732Z,4.07
2022-10-04T08:36:54.517Z,9.85
2022-10-04T08:38:08.830Z,7.47
2022-10-04T08:39:21.507Z,4.22
2022-10-04T08:40:48.911Z,6.32
2022-10-04T08:42:02.223Z,5.63
2022-10-04T08:43:43.315Z,5.05
2022-10-04T08:45:23.756Z,7.10
2022-10-04T08:46:54.810Z,5.70
2022-10-04T08:48:24.620Z,5.00
2022-10-04T08:50:02.145Z,4.70
2022-10-04T08:51:39.187Z,5.10
2022-10-04T08:53:10.939Z,6.03
2022-10-04T08:54:19.242Z,5.22
2022-10-04T08:55:43.550Z,5.22
2022-10-04T08:57:06.303Z,4.93
2022-10-04T08:58:16.411Z,6.90
2022-10-04T08:59:58.027Z,7.90
2022-10-04T09:01:18.134Z,5.40
2022-10-04T09:02:29.347Z,5.82
2022-10-04T09:04:06.983Z,6.22
2022-10-04T09:05:27.827Z,5.60
2022-10-04T09:06:59.823Z,3.88
2022-10-04T09:08:39.690Z,6.00
2022-10-04T09:09:53.712Z,5.55
2022-10-04T09:11:17.905Z,7.20
2022-10-04T09:12:53.363Z,4.95
2022-10-04T09:14:24.119Z,5.47
2022-10-04T09:15:35.198Z,4.60
2022-10-04T09:16:49.380Z,4.63
2022-10-04T09:18:13.450Z,5.93
2022-10-04T09:19:23.414Z,7.60
2022-10-04T09:20:46.816Z,5.80
2022-10-04T09:22:01.408Z,4.63
2022-10-04T09:23:24.256Z,6.53
2022-10-04T09:24:48.095Z,7.25
2022-10-04T09:26:29.214Z,5.25
2022-10-04T09:27:59.269Z,5.82
2022-10-04T09:29:28.556Z,5.40
2022-10-04T09:30:48.186Z,7.45
2022-10-04T09:32:19.037Z,5.65
2022-10-04T09:33:49.288Z,4.80
2022-10-04T09:35:20.254Z,4.45
2022-10-04T09:36:58.370Z,6.45
2022-10-04T09:38:47.923Z,4.93
2022-10-04T09:40:11.866Z,6.40
2022-10-04T09:41:22.871Z,6.18
2022-10-04T09:42:43.749Z,4.55
2022-10-04T09:44:22.268Z,6.00
2022-10-04T09:45:43.081Z,5.93
2022-10-04T09:47:08.323Z,5.03
2022-10-04T09:48:33.007Z,5.20
2022-10-04T09:50:06.017Z,6.13
2022-10-04T09:51:23.388Z,5.32
2022-10-04T09:52:49.083Z,4.30
2022-10-04T09:53:53.040Z,5.53
2022-10-04T09:54:56.902Z,2.97
2022-10-04T09:56:15.990Z,4.78
2022-10-04T09:57:33.703Z,4.38
2022-10-04T09:59:18.603Z,3.47
2022-10-04T10:00:24.952Z,4.13
2022-10-04T10:02:06.201Z,4.72
2022-10-04T10:03:31.021Z,4.50
2022-10-04T10:05:02.328Z,5.47
2022-10-04T10:06:13.499Z,5.88
2022-10-04T10:07:31.173Z,5.63
2022-10-04T10:09:07.389Z,3.90
2022-10-04T10:10:58.411Z,5.38
2022-10-04T10:12:55.425Z,3.40
2022-10-04T10:14:42.341Z,3.58
2022-10-04T10:15:59.932Z,9.23
2022-10-04T10:17:23.605Z,5.00
2022-10-04T10:19:05.730Z,5.20
2022-10-04T10:20:28.410Z,6.13
2022-10-04T10:22:09.207Z,5.57
2022-10-04T10:23:44.121Z,4.15
2022-10-04T10:25:07.766Z,3.35
2022-10-04T10:26:28.294Z,5.47
2022-10-04T10:27:57.281Z,4.40
2022-10-04T10:29:14.504Z,6.38
2022-10-04T10:30:33.395Z,3.67
2022-10-04T10:32:00.850Z,4.43
2022-10-04T10:33:20.093Z,5.10
2022-10-04T10:34:41.204Z,3.85
2022-10-04T10:35:59.144Z,4.38
2022-10-04T10:37:17.099Z,4.30
2022-10-04T10:38:32.246Z,2.45
2022-10-04T10:39:38.099Z,4.47
2022-10-04T10:40:55.196Z,3.85
2022-10-04T10:42:31.202Z,3.53
2022-10-04T10:44:04.195Z,5.82
2022-10-04T10:45:15.180Z,3.33
2022-10-04T10:46:19.209Z,4.10
2022-10-04T10:47:26.277Z,7.72
2022-10-04T10:48:37.212Z,4.38
2022-10-04T10:50:01.505Z,4.30
2022-10-04T10:51:34.553Z,2.88
2022-10-04T10:53:14.367Z,6.75
2022-10-04T10:55:01.955Z,3.78
2022-10-04T10:56:41.720Z,7.25
2022-10-04T10:57:56.089Z,5.43
2022-10-04T10:59:22.836Z,3.08
2022-10-04T11:00:42.560Z,4.05
2022-10-04T11:02:06.828Z,6.95
2022-10-04T11:03:43.586Z,5.18
2022-10-04T11:05:23.301Z,3.65
2022-10-04T11:06:47.527Z,3.10
2022-10-04T11:08:09.346Z,3.85
2022-10-04T11:09:34.265Z,4.63
2022-10-04T11:11:04.455Z,4.68
2022-10-04T11:12:39.784Z,4.82
2022-10-04T11:14:00.551Z,5.43
2022-10-04T11:15:38.523Z,5.75
2022-10-04T11:17:09.714Z,5.45
2022-10-04T11:18:27.260Z,3.85
2022-10-04T11:20:11.684Z,3.20
2022-10-04T11:21:41.673Z,5.80
2022-10-04T11:23:05.384Z,3.60
2022-10-04T11:24:19.765Z,4.82
2022-10-04T11:25:49.025Z,5.88
2022-10-04T11:27:13.861Z,3.70
2022-10-04T11:28:37.387Z,3.78
2022-10-04T11:29:55.409Z,4.30
2022-10-04T11:31:19.321Z,2.45
2022-10-04T11:32:52.712Z,4.40
2022-10-04T11:34:16.413Z,4.72
2022-10-04T11:35:24.986Z,5.65
2022-10-04T11:36:54.113Z,10.05
2022-10-04T11:38:32.352Z,4.80
2022-10-04T11:39:58.884Z,3.80
2022-10-04T11:41:07.851Z,4.30
2022-10-04T11:42:30.887Z,3.38
2022-10-04T11:43:52.550Z,2.35
2022-10-04T11:45:19.948Z,3.22
2022-10-04T11:46:41.571Z,3.65
2022-10-04T11:48:02.154Z,4.78
2022-10-04T11:49:38.620Z,3.20
2022-10-04T11:50:43.849Z,3.97
2022-10-04T11:52:11.399Z,4.03
2022-10-04T11:53:56.384Z,5.13
2022-10-04T11:55:26.562Z,3.35
2022-10-04T11:56:41.889Z,2.80
2022-10-04T11:58:03.166Z,3.42
2022-10-04T11:59:18.467Z,3.53
2022-10-04T12:00:23.322Z,2.97
2022-10-04T12:01:30.503Z,6.80
2022-10-04T12:02:51.710Z,4.15
2022-10-04T12:04:08.990Z,5.28
2022-10-04T12:05:25.670Z,7.43
2022-10-04T12:06:47.117Z,5.63
2022-10-04T12:08:43.716Z,3.03
2022-10-04T12:10:06.383Z,2.03
2022-10-04T12:12:09.340Z,3.65
2022-10-04T12:13:32.413Z,3.15
2022-10-04T12:15:04.445Z,2.50
2022-10-04T12:16:13.200Z,3.60
2022-10-04T12:17:50.028Z,4.53
2022-10-04T12:19:15.551Z,2.67
2022-10-04T12:20:40.499Z,3.15
2022-10-04T12:22:07.658Z,3.50
2022-10-04T12:23:29.741Z,2.25
2022-10-04T12:25:09.705Z,3.53
2022-10-04T12:26:33.063Z,3.38
2022-10-04T12:27:45.817Z,4.45
2022-10-04T12:29:12.974Z,2.78
2022-10-04T12:30:43.514Z,3.25
2022-10-04T12:31:55.332Z,5.00
2022-10-04T12:33:14.828Z,6.93
2022-10-04T12:34:27.986Z,4.32
2022-10-04T12:35:34.363Z,2.78
2022-10-04T12:37:11.536Z,5.00
2022-10-04T12:38:39.034Z,3.58
2022-10-04T12:40:02.141Z,3.67
2022-10-04T12:41:26.333Z,1.95
2022-10-04T12:43:06.247Z,4.05
2022-10-04T12:44:32.269Z,3.25
2022-10-04T12:45:39.233Z,3.00
2022-10-04T12:47:13.745Z,5.78
2022-10-04T12:48:50.680Z,2.60
2022-10-04T12:50:31.605Z,3.38
2022-10-04T12:51:48.661Z,3.50
2022-10-04T12:53:21.778Z,4.60
2022-10-04T12:54:44.636Z,4.30
2022-10-04T12:55:49.597Z,7.28
2022-10-04T12:57:20.276Z,4.57
2022-10-04T12:58:45.406Z,4.00
2022-10-04T13:00:14.894Z,3.17
2022-10-04T13:01:34.402Z,3.88
2022-10-04T13:02:36.716Z,2.90
2022-10-04T13:03:54.452Z,3.75
2022-10-04T13:05:07.886Z,2.15
2022-10-04T13:06:16.086Z,2.58
2022-10-04T13:07:43.528Z,1.63
2022-10-04T13:09:16.949Z,3.42
2022-10-04T13:10:24.510Z,2.90
2022-10-04T13:11:41.935Z,3.15
2022-10-04T13:13:05.677Z,2.45
2022-10-04T13:14:32.262Z,2.88
2022-10-04T13:17:35.803Z,4.78
2022-10-04T13:19:17.389Z,2.83
2022-10-04T13:20:36.417Z,2.28
2022-10-04T13:21:41.230Z,2.38
2022-10-04T13:22:57.614Z,2.45
2022-10-04T13:24:11.611Z,3.38
2022-10-04T13:25:24.106Z,2.88
2022-10-04T13:27:01.540Z,3.03
2022-10-04T13:28:21.542Z,2.40
2022-10-04T13:30:06.681Z,3.67
2022-10-04T13:31:24.079Z,3.38
2022-10-04T13:32:31.266Z,2.45
2022-10-04T13:33:58.275Z,3.08
2022-10-04T13:35:14.611Z,3.90
2022-10-04T13:36:26.781Z,2.83
2022-10-04T13:37:55.040Z,2.03
2022-10-04T13:39:29.653Z,2.83
2022-10-04T13:41:14.469Z,2.05
2022-10-04T13:42:19.626Z,4.30
2022-10-04T13:43:37.002Z,2.25
2022-10-04T13:45:11.467Z,2.42
2022-10-04T13:46:28.848Z,2.60
2022-10-04T13:47:51.535Z,4.68
2022-10-04T13:49:12.823Z,4.63
2022-10-04T13:50:14.982Z,5.45
2022-10-04T13:51:28.570Z,5.90
2022-10-04T13:53:10.479Z,5.95
2022-10-04T13:54:41.169Z,5.03
2022-10-04T13:56:28.258Z,2.80
2022-10-04T13:57:50.133Z,3.05
2022-10-04T13:59:07.431Z,4.43
2022-10-04T14:00:19.678Z,4.07
2022-10-04T14:01:48.708Z,1.67
2022-10-04T14:02:53.933Z,2.17
2022-10-04T14:04:19.964Z,2.20
2022-10-04T14:05:40.241Z,4.05
2022-10-04T14:07:21.297Z,2.75
2022-10-04T14:08:36.887Z,3.28
2022-10-04T14:10:13.398Z,3.38
2022-10-04T14:11:27.819Z,3.00
2022-10-04T14:12:48.835Z,3.70
2022-10-04T14:14:10.340Z,2.60
2022-10-04T14:15:56.506Z,3.30
2022-10-04T14:17:25.258Z,2.10
2022-10-04T14:18:27.629Z,2.25
2022-10-04T14:19:41.848Z,2.70
2022-10-04T14:21:05.915Z,3.85
2022-10-04T14:22:50.494Z,3.22
2022-10-04T14:24:28.554Z,3.55
2022-10-04T14:25:49.173Z,1.35
2022-10-04T14:27:22.627Z,1.90
2022-10-04T14:28:43.817Z,3.03
2022-10-04T14:29:59.023Z,1.70
2022-10-04T14:31:08.177Z,3.15
2022-10-04T14:32:29.153Z,1.67
2022-10-04T14:33:59.155Z,2.83
2022-10-04T14:35:05.190Z,3.80
2022-10-04T14:36:19.904Z,2.63
2022-10-04T14:38:12.148Z,4.43
2022-10-04T14:39:56.414Z,2.15
2022-10-04T14:41:35.354Z,1.92
2022-10-04T14:42:47.249Z,1.88
2022-10-04T14:44:13.892Z,2.47
2022-10-04T14:45:37.882Z,3.15
2022-10-04T14:47:00.779Z,3.17
2022-10-04T14:48:21.152Z,1.85
2022-10-04T14:49:38.588Z,3.03
2022-10-04T14:51:04.685Z,3.58
2022-10-04T14:52:18.307Z,1.38
2022-10-04T14:53:31.277Z,2.83
2022-10-04T14:55:12.198Z,3.05
2022-10-04T14:56:32.979Z,3.25
2022-10-04T14:58:15.754Z,1.50
2022-10-04T14:59:31.301Z,2.88
2022-10-04T15:00:36.527Z,2.88
2022-10-04T15:02:01.773Z,1.73
2022-10-04T15:03:05.610Z,2.17
2022-10-04T15:04:40.327Z,1.88
2022-10-04T15:05:57.923Z,1.70
2022-10-04T15:07:30.660Z,1.23
2022-10-04T15:08:51.684Z,2.60
2022-10-04T15:10:13.674Z,2.13
2022-10-04T15:11:44.491Z,1.70
2022-10-04T15:13:11.012Z,3.28
2022-10-04T15:14:35.766Z,2.95
2022-10-04T15:15:46.852Z,1.73
2022-10-04T15:16:55.613Z,2.15
2022-10-04T15:18:05.256Z,1.65
2022-10-04T15:19:31.567Z,1.63
2022-10-04T15:20:50.647Z,2.63
2022-10-04T15:21:55.412Z,1.40
2022-10-04T15:23:09.144Z,2.50
2022-10-04T15:24:17.738Z,2.33
2022-10-04T15:25:46.151Z,2.58
2022-10-04T15:27:24.068Z,1.88
2022-10-04T15:28:41.214Z,2.65
2022-10-04T15:30:15.031Z,1.77
2022-10-04T15:32:05.424Z,2.40
2022-10-04T15:33:36.240Z,1.30
2022-10-04T15:34:50.611Z,2.30
2022-10-04T15:36:01.630Z,2.95
2022-10-04T15:37:13.536Z,4.00
2022-10-04T15:38:27.902Z,4.00
2022-10-04T15:39:42.233Z,2.35
2022-10-04T15:41:13.491Z,3.33
2022-10-04T15:42:22.278Z,1.38
2022-10-04T15:43:37.687Z,1.63
2022-10-04T15:45:18.031Z,2.33
2022-10-04T15:46:35.353Z,1.48
2022-10-04T15:47:56.684Z,2.05
2022-10-04T15:49:14.685Z,2.00
2022-10-04T15:50:32.184Z,2.78
2022-10-04T15:52:12.044Z,1.75
2022-10-04T15:53:31.124Z,2.80
2022-10-04T15:54:47.374Z,1.58
2022-10-04T15:56:12.281Z,3.10
2022-10-04T15:57:23.528Z,1.63
2022-10-04T15:58:37.517Z,2.22
2022-10-04T15:59:53.687Z,2.03
2022-10-04T16:01:04.476Z,3.35
2022-10-04T16:02:47.254Z,2.20
2022-10-04T16:04:31.160Z,3.03
2022-10-04T16:05:58.649Z,4.43
2022-10-04T16:07:06.765Z,3.30
2022-10-04T16:08:09.255Z,2.60
2022-10-04T16:09:17.353Z,1.50
2022-10-04T16:10:52.341Z,2.05
2022-10-04T16:12:03.355Z,1.98
2022-10-04T16:13:17.444Z,1.67
2022-10-04T16:15:12.921Z,2.53
2022-10-04T16:16:15.176Z,3.00
2022-10-04T16:17:44.220Z,2.88
2022-10-04T16:19:05.825Z,2.97
2022-10-04T16:20:35.564Z,2.45
2022-10-04T16:22:07.247Z,2.55
2022-10-04T16:23:32.335Z,2.97
2022-10-04T16:24:54.422Z,3.22
2022-10-04T16:26:10.525Z,5.57
2022-10-04T16:27:23.027Z,3.30
2022-10-04T16:28:48.541Z,3.25
2022-10-04T16:30:25.116Z,2.95
2022-10-04T16:31:46.566Z,2.83
2022-10-04T16:32:58.010Z,2.50
2022-10-04T16:34:18.799Z,3.08
2022-10-04T16:35:43.976Z,2.75
2022-10-04T16:36:55.348Z,3.25
2022-10-04T16:38:06.797Z,3.50
2022-10-04T16:39:29.498Z,1.98
2022-10-04T16:40:47.165Z,2.45
2022-10-04T16:42:01.425Z,4.60
2022-10-04T16:43:21.112Z,2.22
2022-10-04T16:44:55.540Z,2.30
2022-10-04T16:46:17.454Z,2.22
2022-10-04T16:47:29.525Z,4.43
2022-10-04T16:48:37.809Z,4.70
2022-10-04T16:49:50.206Z,4.15
2022-10-04T16:51:03.870Z,5.93
2022-10-04T16:52:32.303Z,3.08
2022-10-04T16:54:08.447Z,10.25
2022-10-04T16:55:46.848Z,22.67
2022-10-04T16:56:54.132Z,15.48
2022-10-04T16:58:27.468Z,14.48
2022-10-04T16:59:49.953Z,13.90
2022-10-04T17:01:24.384Z,11.30
2022-10-04T17:02:26.708Z,8.77
2022-10-04T17:03:37.689Z,9.27
2022-10-04T17:04:43.724Z,14.55
2022-10-04T17:05:57.025Z,13.23
2022-10-04T17:07:10.138Z,10.40
2022-10-04T17:08:14.908Z,10.55
2022-10-04T17:09:27.423Z,12.00
2022-10-04T17:10:45.757Z,13.70
2022-10-04T17:12:00.292Z,8.27
2022-10-04T17:13:34.894Z,8.73
2022-10-04T17:14:40.018Z,7.32
2022-10-04T17:15:42.323Z,5.13
2022-10-04T17:16:57.584Z,5.25
2022-10-04T17:18:03.500Z,4.57
2022-10-04T17:19:30.630Z,4.93